createdAt,value
2023-08-15T00:02:06.524Z,100929.75
2023-08-15T00:04:36.705Z,100923.09
2023-08-15T00:07:06.475Z,100923.56
2023-08-15T00:09:34.747Z,100925.66
2023-08-15T00:12:02.608Z,100923.25
2023-08-15T00:14:30.356Z,100923.47
2023-08-15T00:16:58.166Z,100921.28
2023-08-15T00:19:25.974Z,100923.41
2023-08-15T00:21:53.869Z,100921.00
2023-08-15T00:24:23.166Z,100925.13
2023-08-15T00:26:50.861Z,100925.59
2023-08-15T00:29:18.970Z,100925.84
2023-08-15T00:31:46.780Z,100921.34
2023-08-15T00:34:14.616Z,100924.78
2023-08-15T00:36:42.302Z,100917.41
2023-08-15T00:39:10.042Z,100920.94
2023-08-15T00:41:39.624Z,100888.00
2023-08-15T00:44:07.464Z,100871.47
2023-08-15T00:46:35.509Z,100865.38
2023-08-15T00:49:03.546Z,100862.94
2023-08-15T00:51:31.397Z,100852.97
2023-08-15T00:53:59.417Z,100849.66
2023-08-15T00:56:27.660Z,100843.25
2023-08-15T00:58:56.754Z,100836.78
2023-08-15T01:01:26.064Z,100837.16
2023-08-15T01:03:54.088Z,100843.03
2023-08-15T01:06:21.910Z,100835.72
2023-08-15T01:08:49.593Z,100848.72
2023-08-15T01:11:17.576Z,100850.91
2023-08-15T01:13:47.380Z,100854.19
2023-08-15T01:16:20.224Z,100868.25
2023-08-15T01:18:52.070Z,100861.56
2023-08-15T01:21:27.152Z,100854.78
2023-08-15T01:23:58.070Z,100868.84
2023-08-15T01:26:25.953Z,100880.47
2023-08-15T01:28:53.718Z,100891.75
2023-08-15T01:31:28.009Z,100890.22
2023-08-15T01:34:00.340Z,100884.03
2023-08-15T01:36:32.653Z,100882.03
2023-08-15T01:39:02.559Z,100882.94
2023-08-15T01:41:31.496Z,100849.50
2023-08-15T01:44:00.202Z,100855.31
2023-08-15T01:46:28.167Z,100877.03
2023-08-15T01:48:56.094Z,100876.31
2023-08-15T01:51:24.046Z,100871.06
2023-08-15T01:53:51.805Z,100877.97
2023-08-15T01:56:21.025Z,100870.91
2023-08-15T01:58:48.739Z,100857.78
2023-08-15T02:01:16.763Z,100867.97
2023-08-15T02:03:44.391Z,100870.41
2023-08-15T02:06:12.501Z,100880.44
2023-08-15T02:08:40.519Z,100872.63
2023-08-15T02:11:08.224Z,100871.25
2023-08-15T02:13:37.417Z,100866.19
2023-08-15T02:16:05.317Z,100868.53
2023-08-15T02:18:33.382Z,100861.13
2023-08-15T02:21:01.099Z,100843.22
2023-08-15T02:23:28.989Z,100843.75
2023-08-15T02:25:56.800Z,100866.69
2023-08-15T02:28:25.057Z,100869.34
2023-08-15T02:30:55.753Z,100880.25
2023-08-15T02:33:24.271Z,100873.84
2023-08-15T02:35:53.277Z,100865.31
2023-08-15T02:38:21.143Z,100861.53
2023-08-15T02:40:50.320Z,100869.13
2023-08-15T02:43:18.101Z,100858.53
2023-08-15T02:45:45.805Z,100848.44
2023-08-15T02:48:15.674Z,100853.50
2023-08-15T02:50:44.237Z,100833.41
2023-08-15T02:53:11.904Z,100804.78
2023-08-15T02:55:39.917Z,100785.22
2023-08-15T02:58:07.829Z,100756.06
2023-08-15T03:00:36.349Z,100742.25
2023-08-15T03:03:04.247Z,100739.56
2023-08-15T03:05:33.379Z,100735.09
2023-08-15T03:08:01.122Z,100726.22
2023-08-15T03:10:28.903Z,100688.81
2023-08-15T03:12:56.699Z,100667.31
2023-08-15T03:15:24.790Z,100655.13
2023-08-15T03:17:52.724Z,100656.81
2023-08-15T03:20:20.803Z,100659.88
2023-08-15T03:22:49.895Z,100623.53
2023-08-15T03:25:17.838Z,100588.03
2023-08-15T03:27:45.556Z,100520.09
2023-08-15T03:30:13.517Z,100457.13
2023-08-15T03:32:41.298Z,100400.59
2023-08-15T03:35:09.318Z,100385.31
2023-08-15T03:37:37.765Z,100383.13
2023-08-15T03:40:07.567Z,100413.66
2023-08-15T03:42:35.268Z,100409.56
2023-08-15T03:45:03.181Z,100377.59
2023-08-15T03:47:30.862Z,100366.72
2023-08-15T03:50:00.674Z,100324.09
2023-08-15T03:52:28.629Z,100339.78
2023-08-15T03:54:56.383Z,100291.03
2023-08-15T03:57:25.622Z,100278.38
2023-08-15T03:59:53.449Z,100283.44
2023-08-15T04:02:21.248Z,100304.47
2023-08-15T04:04:49.282Z,100293.69
2023-08-15T04:07:17.204Z,100273.97
2023-08-15T04:09:44.946Z,100248.75
2023-08-15T04:12:12.637Z,100261.81
2023-08-15T04:14:41.808Z,100281.09
2023-08-15T04:17:09.642Z,100253.31
2023-08-15T04:19:37.378Z,100213.66
2023-08-15T04:22:05.156Z,100162.78
2023-08-15T04:24:33.004Z,100118.81
2023-08-15T04:27:01.950Z,100159.75
2023-08-15T04:29:29.877Z,100240.16
2023-08-15T04:31:59.442Z,100227.16
2023-08-15T04:34:27.247Z,100148.19
2023-08-15T04:36:55.421Z,100153.56
2023-08-15T04:39:24.169Z,100097.69
2023-08-15T04:41:52.109Z,100102.13
2023-08-15T04:44:19.981Z,100042.22
2023-08-15T04:46:47.808Z,100116.50
2023-08-15T04:49:16.981Z,100184.16
2023-08-15T04:51:44.743Z,100173.97
2023-08-15T04:54:12.528Z,100176.09
2023-08-15T04:56:40.595Z,100126.81
2023-08-15T04:59:08.313Z,100130.22
2023-08-15T05:01:36.539Z,100078.63
2023-08-15T05:04:04.311Z,100028.13
2023-08-15T05:06:34.563Z,100041.22
2023-08-15T05:09:02.604Z,100120.84
2023-08-15T05:11:30.691Z,100169.25
2023-08-15T05:13:58.623Z,100105.41
2023-08-15T05:16:26.476Z,100051.50
2023-08-15T05:18:54.293Z,99993.31
2023-08-15T05:21:22.601Z,99960.34
2023-08-15T05:23:51.829Z,99967.78
2023-08-15T05:26:19.667Z,99970.66
2023-08-15T05:28:47.407Z,99863.25
2023-08-15T05:31:16.038Z,99816.84
2023-08-15T05:33:43.854Z,99767.09
2023-08-15T05:36:11.763Z,99725.41
2023-08-15T05:38:39.527Z,99721.47
2023-08-15T05:41:08.814Z,99691.13
2023-08-15T05:43:36.587Z,99692.59
2023-08-15T05:46:04.574Z,99736.97
2023-08-15T05:48:32.352Z,99715.03
2023-08-15T05:51:00.236Z,99689.41
2023-08-15T05:53:28.062Z,99655.81
2023-08-15T05:55:56.340Z,99608.28
2023-08-15T05:58:26.275Z,99575.88
2023-08-15T06:00:55.452Z,99576.16
2023-08-15T06:03:40.726Z,99570.69
2023-08-15T06:06:12.163Z,99555.59
2023-08-15T06:08:40.110Z,99564.06
2023-08-15T06:11:08.006Z,99559.38
2023-08-15T06:13:37.384Z,99553.06
2023-08-15T06:16:05.333Z,99545.91
2023-08-15T06:18:33.277Z,99537.22
2023-08-15T06:21:01.721Z,99568.69
2023-08-15T06:23:29.729Z,99594.88
2023-08-15T06:25:58.122Z,99618.97
2023-08-15T06:28:26.081Z,99632.44
2023-08-15T06:30:55.509Z,99656.00
2023-08-15T06:33:24.162Z,99675.34
2023-08-15T06:35:52.023Z,99700.47
2023-08-15T06:38:20.440Z,99711.06
2023-08-15T06:40:48.394Z,99731.94
2023-08-15T06:43:16.207Z,99732.78
2023-08-15T06:45:44.138Z,99740.97
2023-08-15T06:48:13.324Z,99735.13
2023-08-15T06:50:41.015Z,99725.88
2023-08-15T06:53:09.458Z,99733.03
2023-08-15T06:55:37.305Z,99730.69
2023-08-15T06:58:05.409Z,99748.94
2023-08-15T07:00:33.263Z,99741.81
2023-08-15T07:03:01.231Z,99778.63
2023-08-15T07:05:31.179Z,99831.09
2023-08-15T07:08:00.469Z,99882.72
2023-08-15T07:10:28.403Z,99891.19
2023-08-15T07:12:56.256Z,99873.09
2023-08-15T07:15:24.363Z,99858.88
2023-08-15T07:17:52.124Z,99876.63
2023-08-15T07:20:21.010Z,99877.13
2023-08-15T07:22:50.288Z,99879.81
2023-08-15T07:25:18.715Z,99904.47
2023-08-15T07:27:46.606Z,99913.53
2023-08-15T07:30:14.920Z,99992.28
2023-08-15T07:32:43.194Z,100142.19
2023-08-15T07:35:11.318Z,100221.19
2023-08-15T07:37:39.282Z,100315.97
2023-08-15T07:40:11.544Z,100364.28
2023-08-15T07:42:39.766Z,100365.41
2023-08-15T07:45:10.395Z,100427.50
2023-08-15T07:47:39.706Z,100479.78
2023-08-15T07:50:14.237Z,100463.63
2023-08-15T07:52:42.214Z,100476.72
2023-08-15T07:55:11.747Z,100480.38
2023-08-15T07:57:40.118Z,100467.94
2023-08-15T08:00:09.444Z,100456.44
2023-08-15T08:02:37.462Z,100450.50
2023-08-15T08:05:07.864Z,100477.75
2023-08-15T08:07:36.236Z,100563.31
2023-08-15T08:10:04.421Z,100621.13
2023-08-15T08:12:34.135Z,100664.09
2023-08-15T08:15:01.974Z,100720.25
2023-08-15T08:17:30.502Z,100783.34
2023-08-15T08:19:58.492Z,100829.63
2023-08-15T08:22:26.439Z,100868.78
2023-08-15T08:24:54.755Z,100887.97
2023-08-15T08:27:23.085Z,100877.31
2023-08-15T08:29:52.267Z,100921.13
2023-08-15T08:32:20.316Z,100957.03
2023-08-15T08:34:49.787Z,100978.25
2023-08-15T08:37:17.619Z,101000.88
2023-08-15T08:39:45.464Z,101006.22
2023-08-15T08:42:13.495Z,101004.09
2023-08-15T08:44:42.083Z,100994.66
2023-08-15T08:47:12.358Z,100984.59
2023-08-15T08:49:40.743Z,100968.16
2023-08-15T08:52:09.931Z,100969.72
2023-08-15T08:57:09.716Z,100983.03
2023-08-15T08:59:39.268Z,100980.72
2023-08-15T09:02:09.591Z,100982.91
2023-08-15T09:04:38.948Z,100974.84
2023-08-15T09:07:06.747Z,100973.53
2023-08-15T09:09:34.552Z,100980.94
2023-08-15T09:12:02.515Z,100993.13
2023-08-15T09:14:30.313Z,100988.28
2023-08-15T09:17:01.062Z,101008.94
2023-08-15T09:19:29.067Z,101013.41
2023-08-15T09:21:58.274Z,101025.53
2023-08-15T09:24:27.826Z,101030.50
2023-08-15T09:26:55.751Z,101052.59
2023-08-15T09:29:24.218Z,101046.03
2023-08-15T09:31:53.241Z,101033.41
2023-08-15T09:34:21.076Z,101016.72
2023-08-15T09:36:48.940Z,101026.13
2023-08-15T09:39:18.414Z,101022.66
2023-08-15T09:41:49.545Z,101018.19
2023-08-15T09:44:30.759Z,101011.94
2023-08-15T09:46:58.820Z,100988.31
2023-08-15T09:49:27.498Z,100898.19
2023-08-15T09:51:55.440Z,100756.50
2023-08-15T09:54:27.284Z,100487.25
2023-08-15T09:56:56.106Z,100238.16
2023-08-15T09:59:25.374Z,100165.88
2023-08-15T10:01:54.663Z,100105.09
2023-08-15T10:04:24.848Z,100141.44
2023-08-15T10:06:53.872Z,100179.34
2023-08-15T10:09:21.923Z,100272.47
2023-08-15T10:11:51.439Z,100237.44
2023-08-15T10:14:22.547Z,100194.44
2023-08-15T10:16:51.161Z,100121.34
2023-08-15T10:19:19.785Z,99978.47
2023-08-15T10:21:52.314Z,99922.50
2023-08-15T10:24:20.321Z,99850.72
2023-08-15T10:26:48.549Z,99785.78
2023-08-15T10:29:18.344Z,99771.16
2023-08-15T10:31:46.804Z,99788.38
2023-08-15T10:34:15.770Z,99784.63
2023-08-15T10:36:44.118Z,99780.06
2023-08-15T10:39:12.171Z,99855.34
2023-08-15T10:41:40.070Z,99911.34
2023-08-15T10:44:08.970Z,99944.00
2023-08-15T10:46:38.907Z,99982.50
2023-08-15T10:49:11.482Z,100058.97
2023-08-15T10:51:39.877Z,100076.16
2023-08-15T10:54:08.795Z,100046.72
2023-08-15T10:56:37.488Z,100150.97
2023-08-15T10:59:07.633Z,100143.56
2023-08-15T11:01:37.929Z,100124.72
2023-08-15T11:04:09.454Z,100231.53
2023-08-15T11:06:42.829Z,100398.88
2023-08-15T11:09:12.354Z,100510.16
2023-08-15T11:11:40.579Z,100547.13
2023-08-15T11:14:16.173Z,100624.63
2023-08-15T11:16:44.337Z,100600.88
2023-08-15T11:19:15.955Z,100632.47
2023-08-15T11:21:43.943Z,100686.09
2023-08-15T11:24:12.611Z,100704.03
2023-08-15T11:26:41.522Z,100755.31
2023-08-15T11:29:10.529Z,100754.81
2023-08-15T11:31:38.509Z,100743.44
2023-08-15T11:34:07.766Z,100736.56
2023-08-15T11:36:38.593Z,100639.00
2023-08-15T11:39:06.738Z,100623.38
2023-08-15T11:41:36.669Z,100580.56
2023-08-15T11:44:05.570Z,100425.91
2023-08-15T11:46:51.396Z,100404.72
2023-08-15T11:49:21.298Z,100395.34
2023-08-15T11:51:51.301Z,100588.50
2023-08-15T11:54:19.498Z,100641.50
2023-08-15T11:56:50.844Z,100755.44
2023-08-15T11:59:20.252Z,100773.03
2023-08-15T12:01:49.268Z,100797.91
2023-08-15T12:04:18.749Z,100860.72
2023-08-15T12:06:46.764Z,100905.97
2023-08-15T12:09:16.150Z,100937.03
2023-08-15T12:11:44.920Z,100974.19
2023-08-15T12:14:20.219Z,100975.53
2023-08-15T12:16:48.072Z,100997.38
2023-08-15T12:19:19.804Z,100999.72
2023-08-15T12:21:50.397Z,101073.72
2023-08-15T12:24:19.664Z,101087.03
2023-08-15T12:26:47.530Z,101093.34
2023-08-15T12:29:17.094Z,101073.84
2023-08-15T12:31:46.227Z,101087.03
2023-08-15T12:34:14.149Z,101069.38
2023-08-15T12:36:42.352Z,101042.88
2023-08-15T12:39:10.551Z,101079.66
2023-08-15T12:41:39.912Z,101116.91
2023-08-15T12:44:08.666Z,101084.34
2023-08-15T12:46:36.843Z,101173.69
2023-08-15T12:49:05.148Z,101192.41
2023-08-15T12:51:33.960Z,101186.94
2023-08-15T12:54:02.042Z,101220.97
2023-08-15T12:56:29.925Z,101236.97
2023-08-15T12:58:59.673Z,101264.63
2023-08-15T13:01:27.976Z,101264.78
2023-08-15T13:03:56.774Z,101230.41
2023-08-15T13:06:25.378Z,101312.59
2023-08-15T13:08:53.218Z,101319.16
2023-08-15T13:11:21.149Z,101285.06
2023-08-15T13:13:49.418Z,101326.41
2023-08-15T13:16:19.321Z,101313.31
2023-08-15T13:18:47.165Z,101365.19
2023-08-15T13:21:18.340Z,101405.94
2023-08-15T13:23:47.891Z,101436.31
2023-08-15T13:26:15.676Z,101405.06
2023-08-15T13:28:43.444Z,101446.28
2023-08-15T13:31:11.379Z,101470.44
2023-08-15T13:33:40.700Z,101491.44
2023-08-15T13:36:08.717Z,101448.50
2023-08-15T13:38:37.324Z,101505.28
2023-08-15T13:41:05.588Z,101539.00
2023-08-15T13:43:34.632Z,101545.13
2023-08-15T13:46:05.868Z,101512.09
2023-08-15T13:48:34.209Z,101555.06
2023-08-15T13:51:04.891Z,101559.34
2023-08-15T13:53:32.840Z,101572.13
2023-08-15T13:56:00.749Z,101574.56
2023-08-15T13:58:29.057Z,101571.94
2023-08-15T14:00:57.302Z,101582.66
2023-08-15T14:03:26.281Z,101573.34
2023-08-15T14:05:54.329Z,101554.44
2023-08-15T14:08:23.856Z,101557.56
2023-08-15T14:10:51.911Z,101577.16
2023-08-15T14:13:19.864Z,101564.63
2023-08-15T14:15:47.688Z,101572.34
2023-08-15T14:18:15.612Z,101589.75
2023-08-15T14:20:43.508Z,101589.63
2023-08-15T14:23:11.254Z,101582.31
2023-08-15T14:25:40.596Z,101583.66
2023-08-15T14:28:08.417Z,101574.78
2023-08-15T14:30:36.418Z,101586.22
2023-08-15T14:33:06.201Z,101581.53
2023-08-15T14:35:34.395Z,101585.13
2023-08-15T14:38:02.534Z,101599.13
2023-08-15T14:40:30.283Z,101591.63
2023-08-15T14:42:59.586Z,101602.31
2023-08-15T14:45:27.605Z,101596.78
2023-08-15T14:47:55.480Z,101609.31
2023-08-15T14:50:23.821Z,101591.16
2023-08-15T14:52:51.593Z,101610.88
2023-08-15T14:55:19.888Z,101594.31
2023-08-15T14:57:48.009Z,101589.94
2023-08-15T15:00:17.709Z,101600.97
2023-08-15T15:02:47.676Z,101595.25
2023-08-15T15:05:15.691Z,101598.09
2023-08-15T15:07:43.670Z,101602.31
2023-08-15T15:10:11.814Z,101591.13
2023-08-15T15:12:40.067Z,101592.31
2023-08-15T15:15:09.934Z,101600.22
2023-08-15T15:17:40.197Z,101598.16
2023-08-15T15:20:08.605Z,101618.59
2023-08-15T15:22:36.540Z,101602.75
2023-08-15T15:25:04.716Z,101613.09
2023-08-15T15:27:32.537Z,101632.41
2023-08-15T15:30:00.365Z,101621.34
2023-08-15T15:32:28.174Z,101601.91
2023-08-15T15:34:57.404Z,101611.13
2023-08-15T15:37:25.384Z,101604.81
2023-08-15T15:39:54.306Z,101614.28
2023-08-15T15:42:22.981Z,101616.59
2023-08-15T15:44:51.095Z,101626.41
2023-08-15T15:47:19.014Z,101627.28
2023-08-15T15:49:46.874Z,101610.41
2023-08-15T15:52:16.283Z,101619.00
2023-08-15T15:54:44.108Z,101641.16
2023-08-15T15:57:11.912Z,101614.13
2023-08-15T15:59:39.846Z,101621.91
2023-08-15T16:02:08.094Z,101627.09
2023-08-15T16:04:37.419Z,101625.69
2023-08-15T16:07:09.712Z,101647.53
2023-08-15T16:09:40.498Z,101630.38
2023-08-15T16:12:08.732Z,101630.16
2023-08-15T16:14:37.659Z,101632.69
2023-08-15T16:17:05.852Z,101638.94
2023-08-15T16:19:33.619Z,101640.19
2023-08-15T16:22:01.501Z,101654.66
2023-08-15T16:24:31.387Z,101654.00
2023-08-15T16:27:00.812Z,101635.03
2023-08-15T16:29:29.176Z,101612.88
2023-08-15T16:31:57.085Z,101627.66
2023-08-15T16:34:25.230Z,101637.59
2023-08-15T16:36:53.162Z,101645.03
2023-08-15T16:39:21.030Z,101640.78
2023-08-15T16:41:49.010Z,101637.34
2023-08-15T16:44:18.884Z,101626.69
2023-08-15T16:46:46.946Z,101616.63
2023-08-15T16:49:14.925Z,101612.59
2023-08-15T16:51:42.768Z,101631.59
2023-08-15T16:54:10.585Z,101645.94
2023-08-15T16:56:38.507Z,101628.59
2023-08-15T16:59:06.411Z,101619.72
2023-08-15T17:01:36.198Z,101625.16
2023-08-15T17:04:04.785Z,101618.72
2023-08-15T17:06:32.654Z,101627.44
2023-08-15T17:09:00.616Z,101641.78
2023-08-15T17:11:28.679Z,101620.59
2023-08-15T17:13:56.564Z,101628.41
2023-08-15T17:16:24.588Z,101645.56
2023-08-15T17:18:53.831Z,101636.97
2023-08-15T17:21:21.686Z,101640.63
2023-08-15T17:23:50.289Z,101639.06
2023-08-15T17:26:18.390Z,101636.41
2023-08-15T17:28:46.971Z,101642.13
2023-08-15T17:31:16.267Z,101630.78
2023-08-15T17:33:44.923Z,101645.50
2023-08-15T17:36:14.551Z,101640.78
2023-08-15T17:38:42.794Z,101633.25
2023-08-15T17:41:10.888Z,101629.47
2023-08-15T17:43:38.724Z,101652.78
2023-08-15T17:46:06.534Z,101634.81
2023-08-15T17:48:34.436Z,101626.88
2023-08-15T17:51:02.688Z,101636.66
2023-08-15T17:53:31.915Z,101643.25
2023-08-15T17:56:00.209Z,101639.88
2023-08-15T17:58:31.913Z,101646.28
2023-08-15T18:00:59.919Z,101638.34
2023-08-15T18:03:28.185Z,101640.47
2023-08-15T18:05:56.096Z,101639.66
2023-08-15T18:08:24.574Z,101642.75
2023-08-15T18:10:53.710Z,101635.00
2023-08-15T18:13:21.508Z,101640.91
2023-08-15T18:15:49.630Z,101646.91
2023-08-15T18:18:17.573Z,101647.94
2023-08-15T18:20:45.365Z,101650.31
2023-08-15T18:23:13.498Z,101650.41
2023-08-15T18:25:41.369Z,101655.72
2023-08-15T18:28:10.598Z,101644.75
2023-08-15T18:30:38.434Z,101649.50
2023-08-15T18:33:06.570Z,101651.78
2023-08-15T18:35:34.510Z,101646.13
2023-08-15T18:38:02.297Z,101641.28
2023-08-15T18:40:30.171Z,101651.59
2023-08-15T18:42:58.223Z,101648.00
2023-08-15T18:45:27.665Z,101645.47
2023-08-15T18:47:55.680Z,101649.63
2023-08-15T18:50:23.988Z,101652.94
2023-08-15T18:52:51.947Z,101648.56
2023-08-15T18:55:19.790Z,101661.72
2023-08-15T18:57:47.765Z,101662.06
2023-08-15T19:00:18.166Z,101665.88
2023-08-15T19:02:48.733Z,101657.78
2023-08-15T19:05:16.905Z,101665.00
2023-08-15T19:07:45.111Z,101660.03
2023-08-15T19:10:12.955Z,101664.66
2023-08-15T19:12:40.827Z,101665.97
2023-08-15T19:15:09.207Z,101666.09
2023-08-15T19:17:37.023Z,101661.00
2023-08-15T19:20:06.818Z,101669.06
2023-08-15T19:22:34.657Z,101673.50
2023-08-15T19:25:02.496Z,101660.56
2023-08-15T19:27:30.429Z,101662.03
2023-08-15T19:29:58.263Z,101666.16
2023-08-15T19:32:26.685Z,101660.34
2023-08-15T19:34:54.739Z,101666.34
2023-08-15T19:37:36.334Z,101668.00
2023-08-15T19:40:05.817Z,101673.97
2023-08-15T19:42:33.635Z,101671.97
2023-08-15T19:45:01.661Z,101674.69
2023-08-15T19:47:29.845Z,101675.00
2023-08-15T19:49:57.808Z,101672.66
2023-08-15T19:52:28.342Z,101670.81
2023-08-15T19:54:56.282Z,101664.09
2023-08-15T19:57:24.427Z,101670.84
2023-08-15T19:59:52.430Z,101672.56
2023-08-15T20:02:21.666Z,101674.00
2023-08-15T20:04:50.187Z,101665.09
2023-08-15T20:07:18.804Z,101668.19
2023-08-15T20:09:55.790Z,101666.41
2023-08-15T20:12:27.638Z,101668.09
2023-08-15T20:14:55.558Z,101660.81
2023-08-15T20:17:24.001Z,101661.09
2023-08-15T20:19:52.052Z,101654.56
2023-08-15T20:22:19.877Z,101653.78
2023-08-15T20:24:49.382Z,101648.72
2023-08-15T20:27:17.475Z,101642.84
2023-08-15T20:29:45.489Z,101639.81
2023-08-15T20:32:13.443Z,101636.16
2023-08-15T20:34:41.473Z,101632.34
2023-08-15T20:37:09.596Z,101625.25
2023-08-15T20:39:37.634Z,101634.88
2023-08-15T20:42:07.157Z,101636.34
2023-08-15T20:44:35.013Z,101601.69
2023-08-15T20:47:03.769Z,101633.34
2023-08-15T20:49:31.662Z,101629.50
2023-08-15T20:51:59.565Z,101635.22
2023-08-15T20:54:29.402Z,101626.31
2023-08-15T20:56:57.282Z,101623.28
2023-08-15T20:59:26.734Z,101612.75
2023-08-15T21:01:54.586Z,101610.31
2023-08-15T21:04:23.151Z,101608.28
2023-08-15T21:06:53.382Z,101609.16
2023-08-15T21:09:23.328Z,101607.91
2023-08-15T21:11:51.440Z,101604.06
2023-08-15T21:14:19.920Z,101604.72
2023-08-15T21:16:49.100Z,101604.31
2023-08-15T21:19:16.866Z,101599.06
2023-08-15T21:21:44.855Z,101595.84
2023-08-15T21:24:12.585Z,101599.09
2023-08-15T21:26:42.942Z,101590.78
2023-08-15T21:29:10.727Z,101597.28
2023-08-15T21:31:38.593Z,101591.63
2023-08-15T21:34:07.826Z,101587.78
2023-08-15T21:36:36.169Z,101587.38
2023-08-15T21:39:04.094Z,101582.53
2023-08-15T21:41:31.970Z,101586.59
2023-08-15T21:43:59.973Z,101577.25
2023-08-15T21:46:27.993Z,101574.22
2023-08-15T21:48:55.799Z,101574.41
2023-08-15T21:51:28.237Z,101570.38
2023-08-15T21:53:56.143Z,101563.69
2023-08-15T21:56:24.311Z,101556.16
2023-08-15T21:58:52.327Z,101563.47
2023-08-15T22:01:20.620Z,101563.13
2023-08-15T22:03:48.543Z,101564.34
2023-08-15T22:06:16.389Z,101562.31
2023-08-15T22:08:45.562Z,101560.28
2023-08-15T22:11:13.368Z,101555.44
2023-08-15T22:13:41.023Z,101554.22
2023-08-15T22:16:08.944Z,101539.59
2023-08-15T22:18:38.105Z,101545.03
2023-08-15T22:21:06.053Z,101540.19
2023-08-15T22:23:33.871Z,101531.06
2023-08-15T22:26:03.138Z,101527.81
2023-08-15T22:28:30.974Z,101522.13
2023-08-15T22:31:01.343Z,101527.84
2023-08-15T22:33:29.509Z,101521.75
2023-08-15T22:35:57.264Z,101522.34
2023-08-15T22:38:25.381Z,101513.00
2023-08-15T22:40:53.230Z,101518.69
2023-08-15T22:43:22.832Z,101504.31
2023-08-15T22:45:50.711Z,101502.28
2023-08-15T22:48:18.973Z,101503.69
2023-08-15T22:50:46.832Z,101497.03
2023-08-15T22:53:14.669Z,101478.34
2023-08-15T22:55:42.608Z,101477.75
2023-08-15T22:58:11.515Z,101470.22
2023-08-15T23:00:40.993Z,101463.56
2023-08-15T23:03:09.028Z,101460.53
2023-08-15T23:05:37.182Z,101464.97
2023-08-15T23:08:05.271Z,101454.84
2023-08-15T23:10:33.076Z,101452.59
2023-08-15T23:13:01.341Z,101452.22
2023-08-15T23:15:29.163Z,101444.72
2023-08-15T23:17:58.672Z,101438.00
2023-08-15T23:20:26.427Z,101430.50
2023-08-15T23:22:54.612Z,101437.59
2023-08-15T23:25:22.561Z,101436.19
2023-08-15T23:27:50.427Z,101440.22
2023-08-15T23:30:19.450Z,101437.84
2023-08-15T23:32:47.408Z,101427.69
2023-08-15T23:35:17.996Z,101423.22
2023-08-15T23:37:46.405Z,101422.19
2023-08-15T23:40:14.235Z,101422.84
2023-08-15T23:42:42.683Z,101419.59
2023-08-15T23:45:12.028Z,101381.22
2023-08-15T23:47:40.014Z,101338.06
2023-08-15T23:50:08.330Z,101341.09
2023-08-15T23:52:37.535Z,101361.56
2023-08-15T23:55:05.728Z,101369.03
2023-08-15T23:57:34.189Z,101378.56
